Time;durP1;ratioP1;P1;durP2;ratioP2;P2;SDS_P1;SDS_P2;PMS_P1;PMS_P2;Temp;Humidity;BMP_temperature;BMP_pressure;BME280_temperature;BME280_humidity;BME280_pressure;Samples;Min_cycle;Max_cycle;Signal;HPM_P1;HPM_P2
2023/01/14 00:01:27;;;;;;;19.17;4.43;;;9.40;99.90;;;;;;4957639;28;20438;-73
2023/01/14 00:03:55;;;;;;;15.43;3.90;;;9.40;99.90;;;;;;4974544;28;20461;-73
2023/01/14 00:06:26;;;;;;;13.27;4.00;;;9.40;99.90;;;;;;4940705;29;20459;-73
2023/01/14 00:09:00;;;;;;;21.20;4.90;;;9.40;99.90;;;;;;4937536;29;21079;-73
2023/01/14 00:11:46;;;;;;;17.70;4.40;;;9.40;99.90;;;;;;4945879;28;20449;-73
2023/01/14 00:14:27;;;;;;;15.53;3.73;;;9.40;99.90;;;;;;4953234;28;20463;-73
2023/01/14 00:16:53;;;;;;;13.00;3.50;;;9.40;99.90;;;;;;4954403;28;20435;-73
2023/01/14 00:19:20;;;;;;;24.47;4.23;;;9.40;99.90;;;;;;4954598;29;20407;-73
2023/01/14 00:21:48;;;;;;;16.27;3.60;;;9.40;99.90;;;;;;4969717;28;20451;-73
2023/01/14 00:24:16;;;;;;;15.27;3.90;;;9.40;99.90;;;;;;4954733;29;20449;-73
2023/01/14 00:26:45;;;;;;;10.33;3.60;;;9.40;99.90;;;;;;4970915;28;20462;-73
2023/01/14 00:29:18;;;;;;;19.70;4.40;;;9.40;99.90;;;;;;4939456;29;20415;-73
2023/01/14 00:31:46;;;;;;;16.70;5.13;;;9.40;99.90;;;;;;4971187;28;20419;-73
2023/01/14 00:34:16;;;;;;;13.77;3.87;;;9.40;99.90;;;;;;4938771;29;20459;-73
2023/01/14 00:36:45;;;;;;;19.23;3.27;;;9.40;99.90;;;;;;4954430;28;20434;-73
2023/01/14 00:39:16;;;;;;;13.03;3.63;;;9.40;99.90;;;;;;4956188;29;20450;-73
2023/01/14 00:41:44;;;;;;;15.50;3.80;;;9.40;99.90;;;;;;4954639;29;20427;-73
2023/01/14 00:44:11;;;;;;;16.10;3.50;;;9.40;99.90;;;;;;4970663;28;20823;-73
2023/01/14 00:46:39;;;;;;;13.40;3.70;;;9.40;99.90;;;;;;4925898;29;20821;-73
2023/01/14 00:49:07;;;;;;;13.03;3.60;;;9.40;99.90;;;;;;4954666;29;20505;-73
2023/01/14 00:51:36;;;;;;;16.73;3.90;;;9.40;99.90;;;;;;4969600;28;20988;-73
2023/01/14 00:54:02;;;;;;;12.77;3.23;;;9.40;99.90;;;;;;4938765;29;20453;-73
2023/01/14 00:56:32;;;;;;;14.67;3.57;;;9.40;99.90;;;;;;4976926;28;20474;-73
2023/01/14 00:58:58;;;;;;;18.57;3.67;;;9.40;99.90;;;;;;4955937;28;20760;-73
2023/01/14 01:01:33;;;;;;;13.70;3.40;;;9.40;99.90;;;;;;4970101;28;20493;-73
2023/01/14 01:04:05;;;;;;;16.77;4.27;;;9.40;99.90;;;;;;4955548;28;20468;-73
2023/01/14 01:06:31;;;;;;;20.77;3.83;;;9.40;99.90;;;;;;4970302;28;20509;-73
2023/01/14 01:09:03;;;;;;;16.23;3.53;;;9.40;99.90;;;;;;4938672;29;21060;-73
2023/01/14 01:11:30;;;;;;;15.73;4.57;;;9.40;99.90;;;;;;4957584;28;20491;-73
2023/01/14 01:13:57;;;;;;;12.50;3.77;;;9.40;99.90;;;;;;4973494;28;20891;-73
2023/01/14 01:16:26;;;;;;;11.27;3.53;;;9.40;99.90;;;;;;4956091;28;20540;-73
2023/01/14 01:18:56;;;;;;;10.20;3.83;;;9.40;99.90;;;;;;4954319;29;20422;-73
2023/01/14 01:21:25;;;;;;;16.63;4.47;;;9.30;99.90;;;;;;4934194;29;20446;-73
2023/01/14 01:23:51;;;;;;;14.37;3.43;;;9.40;99.90;;;;;;4938407;29;20866;-73
2023/01/14 01:26:23;;;;;;;14.00;3.40;;;9.40;99.90;;;;;;4954064;28;20439;-73
2023/01/14 01:28:53;;;;;;;17.83;3.30;;;9.30;99.90;;;;;;4954463;29;20612;-73
2023/01/14 01:31:23;;;;;;;17.03;3.70;;;9.30;99.90;;;;;;4951003;29;20451;-73
2023/01/14 01:33:53;;;;;;;15.07;3.60;;;9.30;99.90;;;;;;4938140;29;20530;-73
2023/01/14 01:36:26;;;;;;;17.37;4.10;;;9.30;99.90;;;;;;4953631;28;20466;-73
2023/01/14 01:38:52;;;;;;;11.83;3.30;;;9.30;99.90;;;;;;4955068;28;20402;-73
2023/01/14 01:41:23;;;;;;;19.70;4.60;;;9.30;99.90;;;;;;4937329;29;20794;-73
2023/01/14 01:44:01;;;;;;;13.63;3.53;;;9.30;99.90;;;;;;4953857;29;20458;-73
2023/01/14 01:46:28;;;;;;;14.47;3.37;;;9.30;99.90;;;;;;4937727;29;21056;-73
2023/01/14 01:49:07;;;;;;;11.00;4.17;;;9.30;99.90;;;;;;4952759;28;20455;-73
2023/01/14 01:51:49;;;;;;;9.80;2.97;;;9.30;99.90;;;;;;4969639;28;20439;-73
2023/01/14 01:54:20;;;;;;;15.33;3.57;;;9.30;99.90;;;;;;4953014;28;20451;-73
2023/01/14 01:56:51;;;;;;;12.90;3.57;;;9.30;99.90;;;;;;4953550;29;20433;-73
2023/01/14 01:59:24;;;;;;;12.10;3.20;;;9.30;99.90;;;;;;4953200;29;20520;-73
2023/01/14 02:01:55;;;;;;;11.33;3.20;;;9.30;99.90;;;;;;4952759;29;20462;-73
2023/01/14 02:04:21;;;;;;;13.47;3.90;;;9.30;99.90;;;;;;4937005;29;20473;-73
2023/01/14 02:06:48;;;;;;;15.60;3.23;;;9.30;99.90;;;;;;4954442;28;20604;-73
2023/01/14 02:09:18;;;;;;;11.83;3.43;;;9.30;99.90;;;;;;4953581;29;20417;-73
2023/01/14 02:11:47;;;;;;;16.10;3.93;;;9.30;99.90;;;;;;4953459;29;20446;-73
2023/01/14 02:14:25;;;;;;;14.00;3.43;;;9.30;99.90;;;;;;4921046;29;20566;-73
2023/01/14 02:17:12;;;;;;;15.50;3.90;;;9.30;99.90;;;;;;4953310;29;20577;-73
2023/01/14 02:20:00;;;;;;;15.43;3.80;;;9.30;99.90;;;;;;4953166;29;20431;-73
2023/01/14 02:22:54;;;;;;;18.20;3.60;;;9.30;99.90;;;;;;4936721;29;20443;-73
2023/01/14 02:25:40;;;;;;;10.70;3.00;;;9.30;99.90;;;;;;4957120;28;20457;-73
2023/01/14 02:28:41;;;;;;;16.43;3.30;;;9.30;99.90;;;;;;4952545;28;20459;-73
2023/01/14 02:31:21;;;;;;;13.07;3.10;;;9.30;99.90;;;;;;4952872;29;20547;-73
2023/01/14 02:34:04;;;;;;;11.83;3.53;;;9.20;99.90;;;;;;4936962;29;20983;-73
2023/01/14 02:36:41;;;;;;;13.97;3.47;;;9.20;99.90;;;;;;4936902;29;20503;-73
2023/01/14 02:39:37;;;;;;;6.83;3.23;;;9.20;99.90;;;;;;4953041;28;20896;-73
2023/01/14 02:45:10;;;;;;;12.53;3.60;;;9.20;99.90;;;;;;4952781;28;20478;-73
2023/01/14 02:47:39;;;;;;;10.33;3.23;;;9.20;99.90;;;;;;4941999;29;20979;-73
2023/01/14 02:50:11;;;;;;;15.53;3.00;;;9.20;99.90;;;;;;4952701;28;20935;-73
2023/01/14 02:52:40;;;;;;;10.70;2.97;;;9.20;99.90;;;;;;4968579;28;20459;-73
2023/01/14 02:55:30;;;;;;;11.43;3.00;;;9.20;99.90;;;;;;4952225;28;20900;-73
2023/01/14 02:58:25;;;;;;;11.30;3.43;;;9.20;99.90;;;;;;4952383;29;20833;-73
2023/01/14 03:01:10;;;;;;;12.10;3.17;;;9.20;99.90;;;;;;4952008;28;20404;-73
2023/01/14 03:04:11;;;;;;;14.40;3.70;;;9.20;99.90;;;;;;4969247;28;20461;-73
2023/01/14 03:07:12;;;;;;;15.37;3.07;;;9.20;99.90;;;;;;4940386;29;21025;-73
2023/01/14 03:10:17;;;;;;;11.10;3.20;;;9.20;99.90;;;;;;4955785;28;20442;-73
2023/01/14 03:13:11;;;;;;;10.20;2.70;;;9.20;99.90;;;;;;4920254;29;20436;-73
2023/01/14 03:16:36;;;;;;;9.23;3.27;;;9.20;99.90;;;;;;4919961;29;20435;-73
2023/01/14 03:19:13;;;;;;;16.60;3.90;;;9.20;99.90;;;;;;4850884;29;20469;-73
2023/01/14 03:21:54;;;;;;;15.80;3.80;;;9.20;99.90;;;;;;4918218;29;20444;-73
2023/01/14 03:24:29;;;;;;;10.87;2.77;;;9.20;99.90;;;;;;4901229;29;20506;-73
2023/01/14 03:27:06;;;;;;;8.07;3.00;;;9.20;99.90;;;;;;4915214;29;20471;-73
2023/01/14 03:29:41;;;;;;;10.27;2.87;;;9.20;99.90;;;;;;4918153;29;20937;-73
2023/01/14 03:32:26;;;;;;;11.03;3.20;;;9.20;99.90;;;;;;4904246;29;20441;-73
2023/01/14 03:35:06;;;;;;;10.30;2.67;;;9.20;99.90;;;;;;4920208;29;20482;-73
2023/01/14 03:37:42;;;;;;;13.70;3.00;;;9.20;99.90;;;;;;4919414;29;20462;-73
2023/01/14 03:40:17;;;;;;;14.53;4.57;;;9.20;99.90;;;;;;4925370;29;20430;-73
2023/01/14 03:42:55;;;;;;;12.83;3.60;;;9.20;99.90;;;;;;4924809;29;20518;-73
2023/01/14 03:45:36;;;;;;;10.33;3.63;;;9.20;99.90;;;;;;4971866;28;20456;-73
2023/01/14 03:48:09;;;;;;;18.97;3.87;;;9.10;99.90;;;;;;4955363;29;20473;-73
2023/01/14 03:50:45;;;;;;;12.30;2.73;;;9.20;99.90;;;;;;4971667;28;20502;-73
2023/01/14 03:53:29;;;;;;;9.10;3.07;;;9.10;99.90;;;;;;4955545;29;20774;-73
2023/01/14 03:56:22;;;;;;;13.03;3.30;;;9.10;99.90;;;;;;4963026;28;20500;-73
2023/01/14 03:59:00;;;;;;;7.80;3.00;;;9.10;99.90;;;;;;4955913;28;20433;-73
2023/01/14 04:01:32;;;;;;;8.40;2.90;;;9.10;99.90;;;;;;4970590;28;20463;-73
2023/01/14 04:04:01;;;;;;;8.53;3.80;;;9.10;99.90;;;;;;4956714;28;20442;-73
2023/01/14 04:06:28;;;;;;;13.03;2.90;;;9.10;99.90;;;;;;4956226;28;20458;-73
2023/01/14 04:08:59;;;;;;;9.97;3.00;;;9.10;99.90;;;;;;4956300;29;20482;-73
2023/01/14 04:11:25;;;;;;;14.87;3.57;;;9.10;99.90;;;;;;4938464;29;20432;-73
2023/01/14 04:16:43;;;;;;;9.33;2.90;;;9.10;99.90;;;;;;4956431;29;20459;-73
2023/01/14 04:19:09;;;;;;;7.47;3.13;;;9.10;99.90;;;;;;4955516;29;20433;-73
2023/01/14 04:21:43;;;;;;;17.03;3.33;;;9.10;99.90;;;;;;4955800;28;20479;-73
2023/01/14 04:24:09;;;;;;;12.87;2.50;;;9.10;99.90;;;;;;4971318;28;20547;-73
2023/01/14 04:26:35;;;;;;;9.43;3.27;;;9.10;99.90;;;;;;4956255;28;20551;-73
2023/01/14 04:29:06;;;;;;;11.50;3.10;;;9.10;99.90;;;;;;4955319;28;20465;-73
2023/01/14 04:31:36;;;;;;;10.53;3.10;;;9.10;99.90;;;;;;4955305;29;20842;-73
2023/01/14 04:34:05;;;;;;;10.37;2.60;;;9.10;99.90;;;;;;4956375;28;20966;-73
2023/01/14 04:36:33;;;;;;;10.30;3.37;;;9.10;99.90;;;;;;4939133;29;20454;-73
2023/01/14 04:38:59;;;;;;;9.00;3.10;;;9.10;99.90;;;;;;4970952;28;20423;-73
2023/01/14 04:44:12;;;;;;;16.20;3.40;;;9.10;99.90;;;;;;4955897;28;20193;-73
2023/01/14 04:46:42;;;;;;;9.67;2.80;;;9.10;99.90;;;;;;4955460;28;20466;-73
2023/01/14 04:49:11;;;;;;;15.50;3.30;;;9.10;99.90;;;;;;4955919;29;20427;-73
2023/01/14 04:51:41;;;;;;;13.90;2.90;;;9.10;99.90;;;;;;4960657;28;20461;-73
2023/01/14 04:54:09;;;;;;;10.97;3.17;;;9.10;99.90;;;;;;4954611;29;20462;-73
2023/01/14 04:56:35;;;;;;;12.73;2.53;;;9.10;99.90;;;;;;4955806;28;20599;-73
2023/01/14 04:59:02;;;;;;;7.63;2.70;;;9.10;99.90;;;;;;4954477;29;20807;-73
2023/01/14 05:01:29;;;;;;;11.70;3.37;;;9.10;99.90;;;;;;4938289;29;20602;-73
2023/01/14 05:04:00;;;;;;;12.57;3.00;;;9.10;99.90;;;;;;4953425;29;20832;-73
2023/01/14 05:06:30;;;;;;;7.73;2.57;;;9.10;99.90;;;;;;4935384;29;20443;-73
2023/01/14 05:08:58;;;;;;;10.20;2.80;;;9.10;99.90;;;;;;4946963;29;20434;-73
2023/01/14 05:11:24;;;;;;;12.67;2.93;;;9.00;99.90;;;;;;4969663;28;20476;-73
2023/01/14 05:13:50;;;;;;;6.60;2.63;;;9.00;99.90;;;;;;4953478;29;21016;-73
2023/01/14 05:16:16;;;;;;;11.70;2.90;;;9.10;99.90;;;;;;4954493;28;20423;-73
2023/01/14 05:18:43;;;;;;;10.30;2.43;;;9.10;99.90;;;;;;4934979;29;20455;-73
2023/01/14 05:21:14;;;;;;;11.90;3.00;;;9.00;99.90;;;;;;4953645;28;20537;-73
2023/01/14 05:23:40;;;;;;;8.10;2.50;;;9.00;99.90;;;;;;4976478;28;20472;-73
2023/01/14 05:26:06;;;;;;;11.13;2.60;;;9.00;99.90;;;;;;4938291;29;20532;-73
2023/01/14 05:28:36;;;;;;;11.33;3.07;;;9.00;99.90;;;;;;4954024;29;20454;-73
2023/01/14 05:31:08;;;;;;;12.63;3.33;;;9.00;99.90;;;;;;4954280;28;20446;-73
2023/01/14 05:33:41;;;;;;;9.63;3.20;;;9.00;99.90;;;;;;4953997;28;20511;-73
2023/01/14 05:36:07;;;;;;;9.47;4.13;;;9.00;99.90;;;;;;4953975;29;20835;-73
2023/01/14 05:38:38;;;;;;;8.57;2.63;;;9.00;99.90;;;;;;4953940;29;21023;-73
2023/01/14 05:41:12;;;;;;;9.37;2.53;;;9.00;99.90;;;;;;4937252;29;20774;-73
2023/01/14 05:46:25;;;;;;;11.20;3.30;;;9.00;99.90;;;;;;4969054;28;20431;-73
2023/01/14 05:48:54;;;;;;;12.40;2.73;;;9.00;99.90;;;;;;4954755;29;20510;-73
2023/01/14 05:51:20;;;;;;;13.60;3.03;;;9.00;99.90;;;;;;4953692;29;20462;-73
2023/01/14 05:53:51;;;;;;;8.97;3.07;;;9.00;99.90;;;;;;4953473;28;20462;-73
2023/01/14 05:56:18;;;;;;;9.33;3.30;;;9.00;99.90;;;;;;4960688;28;20440;-73
2023/01/14 05:58:46;;;;;;;9.20;3.30;;;9.00;99.90;;;;;;4957609;28;20442;-73
2023/01/14 06:06:52;;;;;;;9.10;2.60;;;9.00;99.90;;;;;;4952790;28;20521;-73
2023/01/14 06:09:19;;;;;;;11.97;2.90;;;9.00;99.90;;;;;;4937650;29;20445;-73
2023/01/14 06:12:02;;;;;;;10.10;2.53;;;9.00;99.90;;;;;;4953494;29;20435;-73
2023/01/14 06:14:33;;;;;;;9.43;3.30;;;9.00;99.90;;;;;;4953553;29;20530;-73
2023/01/14 06:17:02;;;;;;;10.37;2.67;;;9.00;99.90;;;;;;4934300;29;20470;-73
2023/01/14 06:19:30;;;;;;;12.83;2.80;;;9.00;99.90;;;;;;4952166;29;20505;-73
2023/01/14 06:21:56;;;;;;;5.40;2.20;;;9.00;99.90;;;;;;4953131;29;20491;-73
2023/01/14 06:24:25;;;;;;;21.47;3.47;;;9.00;99.90;;;;;;4953239;28;20539;-73
2023/01/14 06:26:53;;;;;;;6.70;2.50;;;9.00;99.90;;;;;;4954392;28;20486;-73
2023/01/14 06:29:20;;;;;;;5.57;2.00;;;9.00;99.90;;;;;;4954492;28;20442;-73
2023/01/14 06:31:50;;;;;;;10.83;3.00;;;9.00;99.90;;;;;;4937753;29;20512;-73
2023/01/14 06:34:17;;;;;;;9.87;2.47;;;9.00;99.90;;;;;;4953730;28;20565;-73
2023/01/14 06:36:43;;;;;;;12.33;2.43;;;9.00;99.90;;;;;;4959458;28;20538;-73
2023/01/14 06:39:11;;;;;;;7.00;2.10;;;8.90;99.90;;;;;;4959703;28;20434;-73
2023/01/14 06:41:39;;;;;;;13.30;3.13;;;9.00;99.90;;;;;;4960766;28;20701;-73
2023/01/14 06:44:10;;;;;;;9.50;3.30;;;8.90;99.90;;;;;;4960452;28;20434;-73
2023/01/14 06:46:38;;;;;;;12.50;3.40;;;8.90;99.90;;;;;;4959179;28;20509;-73
2023/01/14 06:49:07;;;;;;;7.67;2.67;;;8.90;99.90;;;;;;4973250;28;20453;-73
2023/01/14 06:51:39;;;;;;;10.00;2.77;;;8.90;99.90;;;;;;4970848;28;20413;-73
2023/01/14 06:54:05;;;;;;;10.97;2.83;;;8.90;99.90;;;;;;4959219;28;20440;-73
2023/01/14 06:56:34;;;;;;;15.50;2.60;;;8.90;99.90;;;;;;4959231;29;20434;-73
2023/01/14 06:59:00;;;;;;;6.50;2.40;;;8.90;99.90;;;;;;4958716;28;20454;-73
2023/01/14 07:01:26;;;;;;;9.63;2.47;;;8.90;99.90;;;;;;4942824;29;20502;-73
2023/01/14 07:03:52;;;;;;;8.07;2.57;;;8.90;99.90;;;;;;4958954;28;20493;-73
2023/01/14 07:06:20;;;;;;;13.77;2.83;;;8.90;99.90;;;;;;4943017;29;20477;-73
2023/01/14 07:08:46;;;;;;;12.33;2.77;;;8.90;99.90;;;;;;4959032;28;20539;-73
2023/01/14 07:11:14;;;;;;;7.23;2.67;;;8.90;99.90;;;;;;4944037;29;20540;-73
2023/01/14 07:13:42;;;;;;;11.23;3.53;;;8.90;99.90;;;;;;4939828;29;20447;-73
2023/01/14 07:16:11;;;;;;;8.57;2.70;;;8.90;99.90;;;;;;4956324;28;20432;-73
2023/01/14 07:18:37;;;;;;;14.87;3.07;;;8.90;99.90;;;;;;4955953;28;20449;-73
2023/01/14 07:21:03;;;;;;;6.57;2.30;;;8.90;99.90;;;;;;4959463;28;20458;-73
2023/01/14 07:23:31;;;;;;;12.83;2.83;;;8.90;99.90;;;;;;4959569;28;20440;-73
2023/01/14 07:25:57;;;;;;;5.90;2.53;;;8.90;99.90;;;;;;4958652;29;20425;-73
2023/01/14 07:28:29;;;;;;;6.67;2.20;;;8.90;99.90;;;;;;4942578;29;21065;-73
2023/01/14 07:30:56;;;;;;;9.50;2.70;;;8.90;99.90;;;;;;4959099;28;21060;-73
2023/01/14 07:33:24;;;;;;;8.33;2.30;;;8.90;99.90;;;;;;4974753;28;20426;-73
2023/01/14 07:35:52;;;;;;;8.17;3.23;;;8.90;99.90;;;;;;4943257;29;20811;-73
2023/01/14 07:38:20;;;;;;;10.10;3.00;;;8.90;99.90;;;;;;4958791;28;20442;-73
2023/01/14 07:40:49;;;;;;;11.90;3.10;;;8.90;99.90;;;;;;4943083;29;20999;-73
2023/01/14 07:43:16;;;;;;;8.63;3.70;;;8.90;99.90;;;;;;4959317;28;20500;-73
2023/01/14 07:45:45;;;;;;;8.40;2.73;;;8.90;99.90;;;;;;4959203;28;20442;-73
2023/01/14 07:48:11;;;;;;;8.90;2.67;;;8.90;99.90;;;;;;4936449;29;20467;-73
2023/01/14 07:50:37;;;;;;;6.63;2.27;;;8.90;99.90;;;;;;4939610;29;20429;-73
2023/01/14 07:53:08;;;;;;;6.87;2.33;;;8.90;99.90;;;;;;4971130;28;20460;-73
2023/01/14 07:55:36;;;;;;;8.77;2.30;;;8.90;99.90;;;;;;4955883;29;20532;-73
2023/01/14 07:58:07;;;;;;;8.90;2.87;;;8.90;99.90;;;;;;4955794;28;20835;-73
2023/01/14 08:00:38;;;;;;;11.53;2.47;;;8.90;99.90;;;;;;4941585;28;20567;-73
2023/01/14 08:03:06;;;;;;;3.73;2.17;;;8.90;99.90;;;;;;4956363;28;20430;-73
2023/01/14 08:05:35;;;;;;;11.00;3.03;;;8.90;99.90;;;;;;4955929;29;20455;-73
2023/01/14 08:08:06;;;;;;;12.40;2.77;;;8.90;99.90;;;;;;4955095;28;20481;-75
2023/01/14 08:10:32;;;;;;;7.57;2.33;;;8.90;99.90;;;;;;4959781;28;21217;-73
2023/01/14 08:12:58;;;;;;;7.13;2.53;;;8.90;99.90;;;;;;4954766;28;20466;-73
2023/01/14 08:15:26;;;;;;;9.17;2.50;;;8.90;99.90;;;;;;4955551;29;20805;-73
2023/01/14 08:17:59;;;;;;;12.70;3.37;;;8.90;99.90;;;;;;4954539;28;20446;-73
2023/01/14 08:20:26;;;;;;;8.90;2.90;;;8.90;99.90;;;;;;4939428;29;20465;-73
2023/01/14 08:23:01;;;;;;;7.27;2.07;;;8.90;99.90;;;;;;4956142;28;20838;-73
2023/01/14 08:25:28;;;;;;;6.17;2.40;;;8.90;99.90;;;;;;4955329;29;20974;-73
2023/01/14 08:27:54;;;;;;;11.63;3.13;;;8.90;99.90;;;;;;4955911;28;20462;-73
2023/01/14 08:30:21;;;;;;;10.27;2.77;;;8.90;99.90;;;;;;4955333;29;20454;-73
2023/01/14 08:32:52;;;;;;;8.03;2.63;;;8.90;99.90;;;;;;4939302;29;20488;-73
2023/01/14 08:35:21;;;;;;;8.20;2.33;;;8.80;99.90;;;;;;4955046;29;20454;-73
2023/01/14 08:37:47;;;;;;;10.63;2.43;;;8.80;99.90;;;;;;4956141;28;20452;-73
2023/01/14 08:40:18;;;;;;;12.90;3.07;;;8.90;99.90;;;;;;4954615;29;20437;-73
2023/01/14 08:42:44;;;;;;;5.40;2.70;;;8.80;99.90;;;;;;4937975;29;20458;-73
2023/01/14 08:45:13;;;;;;;12.67;2.50;;;8.80;99.90;;;;;;4955828;28;20994;-73
2023/01/14 08:47:39;;;;;;;10.40;2.63;;;8.80;99.90;;;;;;4954279;28;20458;-73
2023/01/14 08:50:07;;;;;;;6.80;2.50;;;8.80;99.90;;;;;;4955644;28;20421;-73
2023/01/14 08:52:47;;;;;;;5.70;2.80;;;8.80;99.90;;;;;;4954812;29;20414;-73
2023/01/14 08:55:14;;;;;;;6.17;2.47;;;8.90;99.90;;;;;;4956490;28;20899;-73
2023/01/14 08:57:43;;;;;;;8.97;2.93;;;8.80;99.90;;;;;;4954601;28;20446;-72
2023/01/14 09:00:11;;;;;;;6.80;2.57;;;8.80;99.90;;;;;;4950973;28;20466;-73
2023/01/14 09:02:37;;;;;;;7.47;3.00;;;8.80;99.90;;;;;;4953743;29;20822;-73
2023/01/14 09:05:04;;;;;;;6.23;2.47;;;8.80;99.90;;;;;;4938673;29;20446;-73
2023/01/14 09:18:43;;;;;;;7.23;2.40;;;8.80;99.90;;;;;;4952123;28;20469;-73
2023/01/14 09:21:08;;;;;;;9.53;3.00;;;8.80;99.90;;;;;;4970040;28;20764;-73
2023/01/14 09:23:34;;;;;;;5.83;2.47;;;8.80;99.90;;;;;;4953027;28;21047;-73
2023/01/14 09:26:00;;;;;;;9.80;2.67;;;8.80;99.90;;;;;;4953946;28;20450;-73
2023/01/14 09:28:29;;;;;;;8.83;2.43;;;8.80;99.90;;;;;;4975064;28;20520;-74
2023/01/14 09:30:55;;;;;;;5.83;2.47;;;8.80;99.90;;;;;;4953664;28;20548;-74
2023/01/14 09:33:24;;;;;;;10.97;3.50;;;8.80;99.90;;;;;;4937003;28;20440;-73
2023/01/14 09:36:00;;;;;;;7.80;2.70;;;8.80;99.90;;;;;;4953102;29;20588;-74
2023/01/14 09:38:30;;;;;;;16.20;3.10;;;8.80;99.90;;;;;;4954695;28;20433;-74
2023/01/14 09:40:58;;;;;;;11.33;3.20;;;8.80;99.90;;;;;;4920620;29;20928;-74
2023/01/14 09:43:29;;;;;;;7.77;3.10;;;8.80;99.90;;;;;;4953380;29;20960;-73
2023/01/14 09:46:00;;;;;;;8.07;2.70;;;8.80;99.90;;;;;;4953038;28;20457;-74
2023/01/14 09:48:30;;;;;;;9.63;2.20;;;8.80;99.90;;;;;;4953671;29;20504;-75
2023/01/14 09:51:08;;;;;;;10.30;2.60;;;8.80;99.90;;;;;;4969019;28;20505;-77
2023/01/14 09:53:43;;;;;;;8.40;2.27;;;8.80;99.90;;;;;;4937216;29;20977;-74
2023/01/14 09:56:33;;;;;;;6.10;2.33;;;8.80;99.90;;;;;;4956438;28;20433;-74
2023/01/14 09:59:07;;;;;;;8.43;2.57;;;8.80;99.90;;;;;;4949751;29;20973;-74
2023/01/14 10:01:48;;;;;;;7.50;2.63;;;8.80;99.90;;;;;;4954151;28;20429;-74
2023/01/14 10:04:41;;;;;;;5.47;2.53;;;8.80;99.90;;;;;;4952208;28;20489;-74
2023/01/14 10:07:11;;;;;;;6.40;2.20;;;8.80;99.90;;;;;;4937097;29;20987;-74
2023/01/14 10:10:03;;;;;;;6.20;2.47;;;8.80;99.90;;;;;;4953075;28;20528;-74
2023/01/14 10:12:35;;;;;;;6.80;1.93;;;8.80;99.90;;;;;;4950533;29;20431;-74
2023/01/14 10:15:18;;;;;;;8.30;2.30;;;8.80;99.90;;;;;;4953840;29;20457;-74
2023/01/14 10:17:51;;;;;;;7.10;2.27;;;8.80;99.90;;;;;;4961906;28;20465;-74
2023/01/14 10:20:35;;;;;;;8.57;2.47;;;8.80;99.90;;;;;;4952881;28;20452;-74
2023/01/14 10:23:28;;;;;;;6.30;2.57;;;8.80;99.90;;;;;;4953544;29;20552;-74
2023/01/14 10:25:57;;;;;;;4.50;1.77;;;8.80;99.90;;;;;;4951985;28;20456;-74
2023/01/14 10:28:27;;;;;;;7.37;2.57;;;8.80;99.90;;;;;;4948224;28;20595;-74
2023/01/14 10:31:01;;;;;;;4.93;1.80;;;8.80;99.90;;;;;;4960619;28;20432;-74
2023/01/14 10:33:27;;;;;;;11.27;2.13;;;8.80;99.90;;;;;;4951847;28;20511;-74
2023/01/14 10:36:11;;;;;;;4.10;1.60;;;8.80;99.90;;;;;;4948019;28;21033;-75
2023/01/14 10:38:44;;;;;;;4.50;1.60;;;8.80;99.90;;;;;;4945253;29;20726;-75
2023/01/14 10:41:13;;;;;;;5.87;1.70;;;8.80;99.90;;;;;;4944969;28;20967;-74
2023/01/14 10:43:46;;;;;;;5.60;2.10;;;8.80;99.90;;;;;;4946549;29;20956;-75
2023/01/14 10:46:22;;;;;;;7.93;1.97;;;8.80;99.90;;;;;;4953855;28;20449;-72
2023/01/14 10:49:34;;;;;;;5.53;2.00;;;8.90;99.90;;;;;;4939125;29;20473;-74
2023/01/14 10:52:02;;;;;;;3.90;1.70;;;8.80;99.90;;;;;;4951945;28;20438;-73
2023/01/14 10:54:32;;;;;;;7.20;1.87;;;8.80;99.90;;;;;;4951739;28;20811;-74
2023/01/14 10:57:12;;;;;;;3.80;1.73;;;8.80;99.90;;;;;;4952338;28;20432;-74
2023/01/14 10:59:40;;;;;;;2.63;1.40;;;8.80;99.90;;;;;;4950911;28;20574;-74
2023/01/14 11:02:27;;;;;;;1.90;1.30;;;8.80;99.90;;;;;;4965129;28;20524;-74
2023/01/14 11:04:54;;;;;;;4.20;1.60;;;8.80;99.90;;;;;;4967717;28;21077;-74
2023/01/14 11:07:27;;;;;;;4.00;1.40;;;8.80;99.90;;;;;;4963904;28;20474;-77
2023/01/14 11:09:57;;;;;;;6.23;1.53;;;8.90;99.90;;;;;;4950888;29;20427;-76
2023/01/14 11:12:31;;;;;;;6.57;1.60;;;8.90;99.90;;;;;;4949252;29;20494;-75
2023/01/14 11:15:01;;;;;;;4.93;1.50;;;8.90;99.90;;;;;;4965240;28;20835;-75
2023/01/14 11:17:31;;;;;;;4.00;1.67;;;8.90;99.90;;;;;;4952383;28;20455;-74
2023/01/14 11:20:27;;;;;;;3.57;1.50;;;8.90;99.90;;;;;;4966973;28;20540;-75
2023/01/14 11:23:02;;;;;;;2.57;1.47;;;8.90;99.90;;;;;;4966450;28;20439;-75
2023/01/14 11:25:33;;;;;;;6.63;1.53;;;8.90;99.90;;;;;;4938160;29;20453;-74
2023/01/14 11:28:04;;;;;;;3.30;1.37;;;8.90;99.90;;;;;;4939769;29;20493;-75
2023/01/14 11:30:33;;;;;;;2.23;1.27;;;8.90;99.90;;;;;;4971105;28;20471;-75
2023/01/14 11:33:04;;;;;;;2.60;1.10;;;8.90;99.90;;;;;;4954435;28;20426;-74
2023/01/14 11:35:35;;;;;;;4.77;2.00;;;8.90;99.90;;;;;;4953918;28;20549;-74
2023/01/14 11:38:03;;;;;;;2.93;1.20;;;8.90;99.90;;;;;;4921618;29;20448;-74
2023/01/14 11:43:18;;;;;;;5.03;1.73;;;8.90;99.90;;;;;;4948039;28;20484;-75
2023/01/14 11:45:46;;;;;;;5.23;1.67;;;8.90;99.90;;;;;;4954027;29;20489;-74
2023/01/14 11:48:29;;;;;;;7.50;1.73;;;8.90;99.90;;;;;;4956343;28;20509;-74
2023/01/14 11:51:15;;;;;;;2.80;1.47;;;8.90;99.90;;;;;;4940274;29;20488;-74
2023/01/14 11:53:52;;;;;;;1.90;1.37;;;9.00;99.90;;;;;;4954731;28;20450;-74
2023/01/14 11:56:31;;;;;;;3.73;2.47;;;9.00;99.90;;;;;;4954036;28;20442;-74
2023/01/14 11:59:00;;;;;;;2.33;1.50;;;9.00;99.90;;;;;;4938336;29;20476;-74
2023/01/14 12:01:38;;;;;;;2.93;1.07;;;8.90;99.90;;;;;;4970240;28;20510;-74
2023/01/14 12:04:18;;;;;;;5.10;1.77;;;9.00;99.90;;;;;;4953478;29;20533;-75
2023/01/14 12:06:57;;;;;;;9.10;1.60;;;9.00;99.90;;;;;;4937892;29;20473;-74
2023/01/14 12:09:28;;;;;;;6.20;1.70;;;9.00;99.90;;;;;;4952973;29;20830;-74
2023/01/14 12:12:04;;;;;;;5.47;1.43;;;9.00;99.90;;;;;;4953868;29;20569;-74
2023/01/14 12:17:28;;;;;;;4.30;1.50;;;9.00;99.90;;;;;;4953314;29;20453;-74
2023/01/14 12:20:02;;;;;;;2.50;1.33;;;9.00;99.90;;;;;;4952625;29;20947;-74
2023/01/14 12:22:31;;;;;;;3.40;1.50;;;9.00;99.90;;;;;;4953541;28;20817;-74
2023/01/14 12:25:15;;;;;;;3.10;1.40;;;9.00;99.90;;;;;;4953047;28;20468;-74
2023/01/14 12:28:02;;;;;;;3.20;1.60;;;9.00;99.90;;;;;;4935630;28;20469;-74
2023/01/14 12:30:40;;;;;;;2.30;0.93;;;9.00;99.90;;;;;;4933020;28;21018;-74
2023/01/14 12:33:09;;;;;;;2.17;1.20;;;9.00;99.90;;;;;;4936495;29;20476;-74
2023/01/14 12:36:16;;;;;;;3.20;1.93;;;9.00;99.90;;;;;;4934673;29;20980;-74
2023/01/14 12:47:36;;;;;;;3.57;1.13;;;9.00;99.90;;;;;;4934205;29;20482;-75
2023/01/14 12:50:08;;;;;;;3.67;1.30;;;9.00;99.90;;;;;;4923917;28;20475;-74
2023/01/14 12:52:47;;;;;;;2.70;1.13;;;9.00;99.90;;;;;;4950015;28;20420;-74
2023/01/14 12:55:32;;;;;;;3.33;1.10;;;9.00;99.90;;;;;;4926275;29;20531;-74
2023/01/14 12:58:00;;;;;;;2.20;1.30;;;9.00;99.90;;;;;;4937743;29;20480;-75
2023/01/14 13:00:32;;;;;;;2.33;1.37;;;9.00;99.90;;;;;;4953674;28;21065;-75
2023/01/14 13:03:04;;;;;;;1.53;1.00;;;9.00;99.90;;;;;;4954158;28;20433;-75
2023/01/14 13:05:37;;;;;;;4.27;1.40;;;9.10;99.90;;;;;;4966361;28;20469;-75
2023/01/14 13:08:08;;;;;;;1.30;1.10;;;9.10;99.90;;;;;;4953324;28;20541;-75
2023/01/14 13:10:37;;;;;;;3.97;1.10;;;9.10;99.90;;;;;;4953219;28;21009;-75
2023/01/14 13:13:24;;;;;;;1.40;1.00;;;9.10;99.90;;;;;;4968892;28;20459;-75
2023/01/14 13:15:50;;;;;;;2.33;1.10;;;9.10;99.90;;;;;;4937484;29;20446;-75
2023/01/14 13:18:35;;;;;;;3.63;1.33;;;9.10;99.90;;;;;;4953583;28;20438;-75
2023/01/14 13:21:10;;;;;;;1.40;0.90;;;9.10;99.90;;;;;;4952844;28;20449;-74
2023/01/14 13:23:36;;;;;;;1.97;1.10;;;9.10;99.90;;;;;;4953215;28;20499;-75
2023/01/14 13:26:16;;;;;;;2.50;1.73;;;9.10;99.90;;;;;;4956321;28;20441;-75
2023/01/14 13:29:06;;;;;;;3.50;1.20;;;9.10;99.90;;;;;;4952454;28;20456;-75
2023/01/14 13:31:36;;;;;;;1.20;1.10;;;9.10;99.90;;;;;;4953652;28;20840;-75
2023/01/14 13:34:28;;;;;;;2.07;1.23;;;9.10;99.90;;;;;;4968060;28;20449;-75
2023/01/14 13:37:00;;;;;;;1.87;0.93;;;9.10;99.90;;;;;;4952756;28;20532;-75
2023/01/14 13:39:27;;;;;;;1.80;1.30;;;9.10;99.90;;;;;;4960867;28;20444;-74
2023/01/14 13:41:59;;;;;;;2.70;1.20;;;9.10;99.90;;;;;;4955327;28;20811;-75
2023/01/14 13:44:35;;;;;;;1.10;0.90;;;9.10;99.90;;;;;;4953092;28;20547;-75
2023/01/14 13:47:16;;;;;;;2.30;1.47;;;9.10;99.90;;;;;;4967831;28;21233;-75
2023/01/14 13:50:20;;;;;;;1.63;1.10;;;9.10;99.90;;;;;;4952365;28;20430;-75
2023/01/14 13:52:49;;;;;;;2.90;1.13;;;9.10;99.90;;;;;;4952100;29;20427;-74
2023/01/14 13:55:26;;;;;;;1.47;0.93;;;9.10;99.90;;;;;;4951098;28;20463;-75
2023/01/14 13:58:00;;;;;;;2.93;1.17;;;9.10;99.90;;;;;;4924927;29;20975;-75
2023/01/14 14:00:27;;;;;;;2.00;1.40;;;9.10;99.90;;;;;;4950267;29;20434;-75
2023/01/14 14:02:56;;;;;;;1.50;1.10;;;9.10;99.90;;;;;;4952310;29;20438;-75
2023/01/14 14:05:25;;;;;;;3.73;0.93;;;9.20;99.90;;;;;;4953881;28;20452;-75